createdAt,value
2019-05-17T00:00:40.378Z,956.9
2019-05-17T00:10:43.686Z,956.7
2019-05-17T00:20:47.455Z,956.7
2019-05-17T00:30:50.823Z,956.8
2019-05-17T00:40:56.736Z,956.7
2019-05-17T00:51:02.908Z,956.6
2019-05-17T01:01:08.833Z,949.5
2019-05-17T01:11:12.202Z,949.5
2019-05-17T01:21:17.196Z,949.5
2019-05-17T01:31:20.545Z,949.6
2019-05-17T01:41:23.881Z,949.4
2019-05-17T01:51:27.222Z,949.4
2019-05-17T02:01:30.556Z,949.3
2019-05-17T02:11:33.887Z,949.4
2019-05-17T02:21:39.403Z,949.4
2019-05-17T02:31:44.049Z,949.5
2019-05-17T02:41:47.421Z,949.5
2019-05-17T02:51:53.179Z,949.4
2019-05-17T03:01:56.536Z,949.5
2019-05-17T03:12:04.213Z,949.4
2019-05-17T03:22:08.413Z,949.3
2019-05-17T03:32:18.385Z,949.4
2019-05-17T03:42:22.950Z,949.6
2019-05-17T03:52:26.329Z,949.5
2019-05-17T04:02:33.006Z,949.7
2019-05-17T04:12:36.351Z,949.5
2019-05-17T04:22:39.684Z,949.7
2019-05-17T04:32:44.962Z,949.6
2019-05-17T04:42:48.307Z,949.8
2019-05-17T04:52:54.206Z,949.8
2019-05-17T05:02:57.559Z,949.8
2019-05-17T05:13:03.809Z,949.8
2019-05-17T05:23:07.156Z,949.7
2019-05-17T05:33:13.405Z,949.7
2019-05-17T05:43:16.759Z,949.6
2019-05-17T05:53:22.172Z,949.6
2019-05-17T06:03:25.538Z,949.4
2019-05-17T06:13:28.882Z,949.4
2019-05-17T06:23:32.250Z,949.3
2019-05-17T06:33:35.558Z,949.3
2019-05-17T06:43:38.945Z,949.3
2019-05-17T06:53:43.896Z,949.1
2019-05-17T07:03:49.730Z,949.1
2019-05-17T07:13:53.066Z,949
2019-05-17T07:23:56.385Z,948.8
2019-05-17T07:34:00.319Z,948.7
2019-05-17T07:44:03.660Z,948.7
2019-05-17T07:54:07.037Z,948.5
2019-05-17T08:04:10.432Z,948.5
2019-05-17T08:14:33.795Z,948.3
2019-05-17T08:24:37.127Z,948.3
2019-05-17T08:34:40.467Z,948.1
2019-05-17T08:44:43.795Z,948.1
2019-05-17T08:54:49.923Z,947.9
2019-05-17T09:04:53.271Z,947.8
2019-05-17T09:14:56.591Z,947.8
2019-05-17T09:24:59.944Z,947.7
2019-05-17T09:35:03.275Z,947.6
2019-05-17T09:45:06.602Z,947.6
2019-05-17T09:55:10.490Z,947.2
2019-05-17T10:05:13.826Z,947.2
2019-05-17T10:15:17.148Z,954
2019-05-17T10:25:20.494Z,954
2019-05-17T10:35:23.817Z,953.8
2019-05-17T10:45:27.152Z,953.8
2019-05-17T10:55:30.606Z,953.8
2019-05-17T11:05:34.018Z,953.8
2019-05-17T11:15:37.353Z,953.6
2019-05-17T11:25:47.093Z,953.5
2019-05-17T11:35:50.452Z,953.4
2019-05-17T11:45:53.785Z,953.3
2019-05-17T11:55:57.097Z,953.2
2019-05-17T12:06:00.433Z,953
2019-05-17T12:16:04.212Z,953
2019-05-17T12:26:07.550Z,953
2019-05-17T12:36:10.884Z,952.8
2019-05-17T12:46:14.223Z,952.8
2019-05-17T12:56:17.573Z,952.7
2019-05-17T13:06:20.909Z,952.7
2019-05-17T13:16:24.247Z,952.7
2019-05-17T13:26:27.617Z,952.5
2019-05-17T13:36:31.017Z,952.3
2019-05-17T13:46:34.354Z,952.2
2019-05-17T13:56:37.695Z,952.2
2019-05-17T14:06:41.033Z,952
2019-05-17T14:16:44.440Z,952
2019-05-17T14:26:47.807Z,951.8
2019-05-17T14:36:51.195Z,952
2019-05-17T14:46:54.541Z,952
2019-05-17T14:56:57.903Z,951.9
2019-05-17T15:07:01.262Z,951.8
2019-05-17T15:17:04.602Z,951.7
2019-05-17T15:27:07.987Z,951.8
2019-05-17T15:37:11.692Z,951.7
2019-05-17T15:47:15.044Z,951.6
2019-05-17T15:57:18.475Z,951.6
2019-05-17T16:07:21.840Z,951.5
2019-05-17T16:17:25.158Z,951.6
2019-05-17T16:27:28.480Z,951.6
2019-05-17T16:37:31.817Z,951.5
2019-05-17T16:47:35.190Z,951.6
2019-05-17T16:57:38.552Z,951.5
2019-05-17T17:07:41.887Z,951.4
2019-05-17T17:17:45.225Z,951.6
2019-05-17T17:27:48.558Z,951.8
2019-05-17T17:37:51.943Z,951.9
2019-05-17T17:47:55.319Z,952.1
2019-05-17T17:57:58.667Z,952.5
2019-05-17T18:08:01.997Z,952.9
2019-05-17T18:18:05.338Z,953
2019-05-17T18:28:08.660Z,952.9
2019-05-17T18:38:12.104Z,952.7
2019-05-17T18:48:15.447Z,953.5
2019-05-17T18:58:18.814Z,953.6
2019-05-17T19:08:22.175Z,953.8
2019-05-17T19:18:25.543Z,953.9
2019-05-17T19:28:28.859Z,953.8
2019-05-17T19:38:32.236Z,953.9
2019-05-17T19:48:35.605Z,954.2
2019-05-17T19:58:38.930Z,954.5
2019-05-17T20:08:42.275Z,954.5
2019-05-17T20:18:45.630Z,954.7
2019-05-17T20:28:48.948Z,954.8
2019-05-17T20:38:52.288Z,954.8
2019-05-17T20:48:55.635Z,954.9
2019-05-17T20:58:58.945Z,955.1
2019-05-17T21:09:02.276Z,955
2019-05-17T21:19:05.611Z,955
2019-05-17T21:29:08.959Z,947.8
2019-05-17T21:39:12.326Z,947.8
2019-05-17T21:49:15.696Z,947.9
2019-05-17T21:59:19.029Z,947.8
2019-05-17T22:09:22.361Z,947.9
2019-05-17T22:19:25.756Z,947.9
2019-05-17T22:29:29.100Z,948
2019-05-17T22:39:32.440Z,948
2019-05-17T22:49:35.781Z,948
2019-05-17T22:59:39.139Z,948
2019-05-17T23:09:42.519Z,948
2019-05-17T23:19:45.847Z,948
2019-05-17T23:29:49.193Z,948
2019-05-17T23:39:52.578Z,948.1
2019-05-17T23:49:55.928Z,948.1
2019-05-17T23:59:59.261Z,948.1
